Skip Navigation LinksHome page > Weather > Current weather Skip Navigation Links

Current Weather

Chicago O'Hare Intl, Chicago

For information only: do not use for flight planning or navigation.
Latest weather
Observation time Thursday, April 17, 2014 11:51 PM CDT
Local time Friday, April 18, 2014 12:30 AM CDT
Flight conditions Visual Meteorological Conditions
Winds
Wind direction East-Northeast (70°)
Wind speed 6 mph
Visibility 10 mi.
Sky condition
Ceiling 17,000 ft. overcast
Cloud layer few clouds 10,000 ft.
Cloud layer overcast 17,000 ft.
Temperature 49°F
Dewpoint 37°F
Altimeter 30.24 in.Hg
Derived measurements
Relative humidity 63%
Wind chill 47°F
Density altitude -924 ft.
Sea-level pressure 30.25 in.Hg
Remarks
System requires maintenance.
Automated weather observing station with precipitation discriminator.
METAR KORD 180451Z 07005KT 10SM FEW100 OVC170 09/03 A3024 RMK AO2 SLP243 T00940028 $

Settings

Location code

InnerDrive.Weather 4.0.4869.0 Release CLR 4.0.30319.18449
Copyright ©2013 Inner Drive Technology. All rights reserved. Portions Copyright ©1986-2013 David Braverman.

Find weather

Site navigation


Skip Navigation Links

Place info

Page info

PayPal - The safer, easier way to pay online!

Return home.

Copyright ©2014 Inner Drive Technology. Purveyors of fine, hand-crafted computer software. Page printed 2014-04-18T05:30:49 UTC.